SWR27M EGLL-LSZH
Flight info
| Callsign | SWR27M |
|---|---|
| Flight time | N/A |
| Altitude | 29000 |
| Route | DET L6 DVR UL9 KONAN DCT KOK DCT SISGA DCT RITAX DCT KRH M150 LAMGO/N0441F270 T721 SUL/N0429F250 T721 RILAX |
| Aircraft | A320/M-SDE3FGHIRWY/LB1 |
Departure
| Time | N/A |
|---|---|
| Airport | London Heathrow Airport (EGLL) |
Arrival
| Time | 2026-05-07 13:58 |
|---|---|
| Airport | Zürich Airport (LSZH) |
| Time | Latitude | Longitude | Altitude | Speed | Heading |
|---|---|---|---|---|---|
| 2026-05-07 13:31 | 49.55420 | 7.18391 | 29031 ft | 463 kts | 121° |
| 2026-05-07 13:31 | 49.53766 | 7.22617 | 29028 ft | 463 kts | 121° |
| 2026-05-07 13:31 | 49.50435 | 7.31115 | 29035 ft | 463 kts | 121° |
| 2026-05-07 13:32 | 49.47111 | 7.39592 | 29035 ft | 463 kts | 122° |
| 2026-05-07 13:32 | 49.43794 | 7.48007 | 29033 ft | 463 kts | 122° |
| 2026-05-07 13:33 | 49.40454 | 7.56454 | 29037 ft | 463 kts | 122° |
| 2026-05-07 13:33 | 49.37105 | 7.64906 | 29036 ft | 463 kts | 122° |
| 2026-05-07 13:34 | 49.31972 | 7.77811 | 29036 ft | 463 kts | 122° |
| 2026-05-07 13:35 | 49.28728 | 7.85928 | 29029 ft | 463 kts | 122° |
| 2026-05-07 13:35 | 49.25355 | 7.94339 | 29028 ft | 463 kts | 122° |
| 2026-05-07 13:36 | 49.21967 | 8.02737 | 29025 ft | 464 kts | 122° |
| 2026-05-07 13:36 | 49.18571 | 8.11131 | 29021 ft | 464 kts | 122° |
| 2026-05-07 13:37 | 49.15179 | 8.19528 | 29020 ft | 465 kts | 123° |
| 2026-05-07 13:37 | 49.11777 | 8.27907 | 29024 ft | 465 kts | 123° |
| 2026-05-07 13:38 | 49.08365 | 8.36287 | 29022 ft | 465 kts | 123° |
| 2026-05-07 13:38 | 49.04972 | 8.44584 | 29020 ft | 464 kts | 123° |
| 2026-05-07 13:39 | 49.01553 | 8.52922 | 29019 ft | 464 kts | 123° |
| 2026-05-07 13:39 | 48.97879 | 8.61025 | 28693 ft | 465 kts | 131° |
| 2026-05-07 13:39 | 48.95801 | 8.64801 | 28412 ft | 466 kts | 131° |
| 2026-05-07 13:40 | 48.93661 | 8.68441 | 28134 ft | 459 kts | 138° |
| 2026-05-07 13:40 | 48.91175 | 8.71452 | 27862 ft | 454 kts | 149° |
| 2026-05-07 13:40 | 48.88393 | 8.73693 | 27586 ft | 452 kts | 160° |
| 2026-05-07 13:40 | 48.85409 | 8.75109 | 27319 ft | 449 kts | 170° |
| 2026-05-07 13:41 | 48.82317 | 8.75678 | 27055 ft | 447 kts | 181° |
| 2026-05-07 13:41 | 48.79229 | 8.75392 | 26787 ft | 445 kts | 191° |
| 2026-05-07 13:41 | 48.76184 | 8.74569 | 26523 ft | 445 kts | 192° |
| 2026-05-07 13:41 | 48.73128 | 8.73742 | 26265 ft | 446 kts | 192° |
| 2026-05-07 13:42 | 48.70070 | 8.72929 | 25910 ft | 447 kts | 192° |
| 2026-05-07 13:42 | 48.67006 | 8.72120 | 25404 ft | 448 kts | 192° |
| 2026-05-07 13:42 | 48.63897 | 8.71299 | 24913 ft | 463 kts | 192° |
| 2026-05-07 13:42 | 48.60736 | 8.70457 | 24425 ft | 469 kts | 192° |
| 2026-05-07 13:43 | 48.57518 | 8.69600 | 23955 ft | 469 kts | 192° |
| 2026-05-07 13:43 | 48.54304 | 8.68748 | 23456 ft | 467 kts | 192° |
| 2026-05-07 13:43 | 48.51110 | 8.67906 | 22904 ft | 464 kts | 192° |
| 2026-05-07 13:43 | 48.47944 | 8.67075 | 22352 ft | 461 kts | 192° |
| 2026-05-07 13:44 | 48.44797 | 8.66250 | 21802 ft | 457 kts | 192° |
| 2026-05-07 13:44 | 48.41672 | 8.65429 | 21290 ft | 454 kts | 192° |
| 2026-05-07 13:44 | 48.38567 | 8.64611 | 20771 ft | 451 kts | 192° |
| 2026-05-07 13:44 | 48.35495 | 8.63769 | 20263 ft | 448 kts | 192° |
| 2026-05-07 13:45 | 48.32487 | 8.62879 | 19770 ft | 444 kts | 193° |
| 2026-05-07 13:45 | 48.29453 | 8.61947 | 19124 ft | 438 kts | 193° |
| 2026-05-07 13:45 | 48.26477 | 8.61017 | 18398 ft | 435 kts | 194° |
| 2026-05-07 13:45 | 48.23525 | 8.60098 | 17595 ft | 432 kts | 193° |
| 2026-05-07 13:46 | 48.20639 | 8.59212 | 16625 ft | 423 kts | 193° |
| 2026-05-07 13:46 | 48.17800 | 8.58353 | 15607 ft | 409 kts | 193° |
| 2026-05-07 13:46 | 48.15045 | 8.57520 | 14614 ft | 399 kts | 193° |
| 2026-05-07 13:46 | 48.12354 | 8.56713 | 13630 ft | 392 kts | 193° |
| 2026-05-07 13:47 | 48.09707 | 8.55923 | 12422 ft | 384 kts | 193° |
| 2026-05-07 13:47 | 48.07073 | 8.55142 | 10942 ft | 386 kts | 193° |
| 2026-05-07 13:47 | 48.04504 | 8.54388 | 10407 ft | 362 kts | 192° |
| 2026-05-07 13:47 | 48.02134 | 8.53697 | 10211 ft | 332 kts | 193° |
| 2026-05-07 13:48 | 47.99966 | 8.53061 | 10087 ft | 305 kts | 193° |
| 2026-05-07 13:48 | 47.97959 | 8.52467 | 9822 ft | 286 kts | 193° |
| 2026-05-07 13:48 | 47.96039 | 8.51891 | 9684 ft | 280 kts | 193° |
| 2026-05-07 13:48 | 47.94141 | 8.51316 | 9549 ft | 276 kts | 194° |
| 2026-05-07 13:49 | 47.92336 | 8.50642 | 9414 ft | 265 kts | 197° |
| 2026-05-07 13:49 | 47.90596 | 8.49895 | 9282 ft | 257 kts | 198° |
| 2026-05-07 13:49 | 47.90019 | 8.49639 | 9235 ft | 256 kts | 198° |
| 2026-05-07 13:49 | 47.89422 | 8.49372 | 9198 ft | 256 kts | 198° |
| 2026-05-07 13:50 | 47.87724 | 8.48611 | 9052 ft | 254 kts | 199° |
| 2026-05-07 13:50 | 47.86036 | 8.47857 | 9014 ft | 253 kts | 198° |
| 2026-05-07 13:50 | 47.84361 | 8.47115 | 9009 ft | 253 kts | 198° |
| 2026-05-07 13:50 | 47.82655 | 8.46366 | 9005 ft | 253 kts | 198° |
| 2026-05-07 13:51 | 47.80955 | 8.45630 | 8797 ft | 257 kts | 198° |
| 2026-05-07 13:51 | 47.79215 | 8.44881 | 8416 ft | 257 kts | 198° |
| 2026-05-07 13:51 | 47.77524 | 8.44156 | 8172 ft | 251 kts | 198° |
| 2026-05-07 13:51 | 47.75891 | 8.43460 | 7956 ft | 242 kts | 198° |
| 2026-05-07 13:52 | 47.74286 | 8.42774 | 7536 ft | 238 kts | 198° |
| 2026-05-07 13:52 | 47.72690 | 8.42092 | 7016 ft | 240 kts | 198° |
| 2026-05-07 13:52 | 47.71087 | 8.41405 | 6518 ft | 240 kts | 198° |
| 2026-05-07 13:52 | 47.69479 | 8.40715 | 5853 ft | 246 kts | 198° |
| 2026-05-07 13:53 | 47.67835 | 8.40010 | 5345 ft | 245 kts | 198° |
| 2026-05-07 13:53 | 47.66222 | 8.39324 | 5098 ft | 239 kts | 198° |
| 2026-05-07 13:53 | 47.64632 | 8.38648 | 4965 ft | 235 kts | 198° |
| 2026-05-07 13:53 | 47.63091 | 8.37996 | 4856 ft | 226 kts | 198° |
| 2026-05-07 13:54 | 47.61562 | 8.37587 | 4740 ft | 223 kts | 182° |
| 2026-05-07 13:54 | 47.60045 | 8.37979 | 4538 ft | 228 kts | 160° |
| 2026-05-07 13:54 | 47.58702 | 8.39213 | 4270 ft | 229 kts | 139° |
| 2026-05-07 13:54 | 47.57533 | 8.40816 | 3977 ft | 230 kts | 139° |
| 2026-05-07 13:55 | 47.56375 | 8.42418 | 3644 ft | 222 kts | 139° |
| 2026-05-07 13:55 | 47.55286 | 8.43917 | 3374 ft | 208 kts | 139° |
| 2026-05-07 13:55 | 47.54265 | 8.45317 | 3092 ft | 191 kts | 138° |
| 2026-05-07 13:55 | 47.53333 | 8.46595 | 2839 ft | 174 kts | 139° |
| 2026-05-07 13:56 | 47.52495 | 8.47742 | 2629 ft | 162 kts | 139° |
| 2026-05-07 13:56 | 47.51689 | 8.48844 | 2402 ft | 155 kts | 139° |
| 2026-05-07 13:56 | 47.50903 | 8.49921 | 2165 ft | 154 kts | 138° |
| 2026-05-07 13:56 | 47.50128 | 8.51001 | 1965 ft | 151 kts | 136° |
| 2026-05-07 13:57 | 47.49362 | 8.52066 | 1724 ft | 150 kts | 139° |
| 2026-05-07 13:57 | 47.48595 | 8.53096 | 1554 ft | 152 kts | 139° |
| 2026-05-07 13:57 | 47.47821 | 8.54148 | 1412 ft | 147 kts | 139° |
| 2026-05-07 13:57 | 47.47162 | 8.55037 | 1408 ft | 105 kts | 137° |
| 2026-05-07 13:58 | 47.46772 | 8.55568 | 1411 ft | 41 kts | 137° |
| 2026-05-07 13:58 | 47.46536 | 8.55703 | 1404 ft | 25 kts | 168° |
| 2026-05-07 13:58 | 47.46427 | 8.55736 | 1398 ft | 1 kts | 168° |
| 2026-05-07 13:58 | 47.46423 | 8.55738 | 1398 ft | 2 kts | 163° |
| 2026-05-07 13:59 | 47.46363 | 8.55787 | 1403 ft | 12 kts | 139° |
| 2026-05-07 13:59 | 47.46305 | 8.55866 | 1403 ft | 11 kts | 137° |
| 2026-05-07 13:59 | 47.46255 | 8.55934 | 1403 ft | 9 kts | 137° |
| 2026-05-07 13:59 | 47.46209 | 8.55993 | 1403 ft | 8 kts | 146° |
| 2026-05-07 14:00 | 47.46150 | 8.56001 | 1398 ft | 8 kts | 186° |
| 2026-05-07 14:00 | 47.46140 | 8.55999 | 1397 ft | 0 kts | 188° |
| 2026-05-07 14:00 | 47.46138 | 8.55988 | 1405 ft | 2 kts | 245° |
| 2026-05-07 14:00 | 47.46138 | 8.55911 | 1401 ft | 10 kts | 275° |
| 2026-05-07 14:01 | 47.46140 | 8.55873 | 1397 ft | 0 kts | 275° |
| 2026-05-07 14:07 | 47.46140 | 8.55874 | 1397 ft | 0 kts | 275° |